sensor_id;sensor_type;location;lat;lon;timestamp;pressure;altitude;pressure_sealevel;temperature;humidity
4528;BME280;62320;51.520;6.818;2022-10-16T00:02:53;100645.31;;;13.72;98.79
4528;BME280;62320;51.520;6.818;2022-10-16T00:12:54;100648.09;;;13.58;98.29
4528;BME280;62320;51.520;6.818;2022-10-16T00:22:56;100647.31;;;13.50;98.88
4528;BME280;62320;51.520;6.818;2022-10-16T00:32:57;100650.75;;;13.53;99.59
4528;BME280;62320;51.520;6.818;2022-10-16T00:42:58;100652.47;;;13.54;100.00
4528;BME280;62320;51.520;6.818;2022-10-16T00:53:01;100653.34;;;13.52;99.00
4528;BME280;62320;51.520;6.818;2022-10-16T01:03:21;100646.53;;;13.46;99.80
4528;BME280;62320;51.520;6.818;2022-10-16T01:13:33;100644.03;;;13.39;99.85
4528;BME280;62320;51.520;6.818;2022-10-16T01:34:15;100643.34;;;13.25;99.19
4528;BME280;62320;51.520;6.818;2022-10-16T01:44:22;100649.44;;;13.21;99.72
4528;BME280;62320;51.520;6.818;2022-10-16T01:54:30;100642.34;;;13.35;100.00
4528;BME280;62320;51.520;6.818;2022-10-16T02:04:38;100640.72;;;13.28;100.00
4528;BME280;62320;51.520;6.818;2022-10-16T02:14:40;100663.94;;;13.40;100.00
4528;BME280;62320;51.520;6.818;2022-10-16T02:24:54;100664.75;;;13.43;100.00
4528;BME280;62320;51.520;6.818;2022-10-16T02:34:58;100670.91;;;13.33;100.00
4528;BME280;62320;51.520;6.818;2022-10-16T02:45:01;100670.94;;;13.32;100.00
4528;BME280;62320;51.520;6.818;2022-10-16T02:55:03;100658.81;;;13.32;100.00
4528;BME280;62320;51.520;6.818;2022-10-16T03:05:05;100671.88;;;13.28;100.00
4528;BME280;62320;51.520;6.818;2022-10-16T03:15:07;100678.78;;;13.27;100.00
4528;BME280;62320;51.520;6.818;2022-10-16T03:25:08;100658.00;;;13.29;100.00
4528;BME280;62320;51.520;6.818;2022-10-16T03:35:10;100672.78;;;13.22;100.00
4528;BME280;62320;51.520;6.818;2022-10-16T03:45:11;100666.75;;;13.22;100.00
4528;BME280;62320;51.520;6.818;2022-10-16T03:55:13;100697.94;;;13.19;100.00
4528;BME280;62320;51.520;6.818;2022-10-16T04:05:14;100684.16;;;13.14;100.00
4528;BME280;62320;51.520;6.818;2022-10-16T04:15:16;100699.72;;;13.14;100.00
4528;BME280;62320;51.520;6.818;2022-10-16T04:25:17;100698.88;;;13.15;99.73
4528;BME280;62320;51.520;6.818;2022-10-16T04:35:20;100709.16;;;13.21;100.00
4528;BME280;62320;51.520;6.818;2022-10-16T04:45:22;100730.03;;;13.13;100.00
4528;BME280;62320;51.520;6.818;2022-10-16T04:55:23;100740.47;;;13.07;100.00
4528;BME280;62320;51.520;6.818;2022-10-16T05:05:25;100743.84;;;13.15;100.00
4528;BME280;62320;51.520;6.818;2022-10-16T05:15:26;100755.88;;;13.24;100.00
4528;BME280;62320;51.520;6.818;2022-10-16T05:25:28;100764.63;;;13.17;100.00
4528;BME280;62320;51.520;6.818;2022-10-16T05:35:29;100766.31;;;13.18;100.00
4528;BME280;62320;51.520;6.818;2022-10-16T05:45:31;100787.09;;;13.19;100.00
4528;BME280;62320;51.520;6.818;2022-10-16T05:55:32;100793.16;;;13.18;100.00
4528;BME280;62320;51.520;6.818;2022-10-16T06:05:33;100814.91;;;13.08;100.00
4528;BME280;62320;51.520;6.818;2022-10-16T06:15:35;100816.56;;;13.14;100.00
4528;BME280;62320;51.520;6.818;2022-10-16T06:25:36;100829.59;;;13.08;100.00
4528;BME280;62320;51.520;6.818;2022-10-16T06:35:37;100847.75;;;13.12;100.00
4528;BME280;62320;51.520;6.818;2022-10-16T06:45:39;100860.66;;;13.18;100.00
4528;BME280;62320;51.520;6.818;2022-10-16T06:55:40;100890.94;;;13.21;100.00
4528;BME280;62320;51.520;6.818;2022-10-16T07:05:42;100910.78;;;13.25;100.00
4528;BME280;62320;51.520;6.818;2022-10-16T07:15:43;100935.94;;;13.20;100.00
4528;BME280;62320;51.520;6.818;2022-10-16T07:25:45;100938.53;;;13.18;100.00
4528;BME280;62320;51.520;6.818;2022-10-16T07:35:53;100948.88;;;13.27;100.00
4528;BME280;62320;51.520;6.818;2022-10-16T07:45:55;100957.44;;;13.37;99.88
4528;BME280;62320;51.520;6.818;2022-10-16T07:56:03;100986.72;;;13.55;100.00
4528;BME280;62320;51.520;6.818;2022-10-16T08:06:05;101009.06;;;13.75;100.00
4528;BME280;62320;51.520;6.818;2022-10-16T08:16:07;101002.81;;;13.95;100.00
4528;BME280;62320;51.520;6.818;2022-10-16T08:26:09;101034.03;;;13.91;100.00
4528;BME280;62320;51.520;6.818;2022-10-16T08:36:11;101052.94;;;14.09;99.43
4528;BME280;62320;51.520;6.818;2022-10-16T08:46:19;101071.88;;;14.22;98.90
4528;BME280;62320;51.520;6.818;2022-10-16T08:56:23;101067.38;;;14.42;98.99
4528;BME280;62320;51.520;6.818;2022-10-16T09:16:47;101092.06;;;14.82;97.62
4528;BME280;62320;51.520;6.818;2022-10-16T09:26:51;101103.16;;;14.98;96.17
4528;BME280;62320;51.520;6.818;2022-10-16T09:36:53;101110.84;;;15.07;96.15
4528;BME280;62320;51.520;6.818;2022-10-16T09:47:25;101110.56;;;15.27;96.02
4528;BME280;62320;51.520;6.818;2022-10-16T09:57:27;101116.53;;;15.36;95.85
4528;BME280;62320;51.520;6.818;2022-10-16T10:07:37;101113.53;;;15.63;94.03
4528;BME280;62320;51.520;6.818;2022-10-16T10:17:55;101113.19;;;15.88;92.91
4528;BME280;62320;51.520;6.818;2022-10-16T10:38:53;101123.03;;;16.21;91.76
4528;BME280;62320;51.520;6.818;2022-10-16T11:10:03;101143.50;;;16.43;91.60
4528;BME280;62320;51.520;6.818;2022-10-16T11:30:41;101154.66;;;16.55;89.79
4528;BME280;62320;51.520;6.818;2022-10-16T11:40:48;101161.56;;;16.57;89.35
4528;BME280;62320;51.520;6.818;2022-10-16T11:50:56;101144.06;;;16.62;89.50
4528;BME280;62320;51.520;6.818;2022-10-16T12:21:30;101187.03;;;16.92;88.30
4528;BME280;62320;51.520;6.818;2022-10-16T12:31:46;101168.94;;;17.26;85.78
4528;BME280;62320;51.520;6.818;2022-10-16T12:42:04;101179.66;;;17.10;88.12
4528;BME280;62320;51.520;6.818;2022-10-16T12:52:24;101169.13;;;17.15;87.60
4528;BME280;62320;51.520;6.818;2022-10-16T13:23:32;101190.31;;;17.44;82.11
4528;BME280;62320;51.520;6.818;2022-10-16T13:33:39;101201.16;;;17.26;85.08
4528;BME280;62320;51.520;6.818;2022-10-16T13:43:48;101202.91;;;17.26;84.79
4528;BME280;62320;51.520;6.818;2022-10-16T13:53:51;101199.44;;;17.25;86.14
4528;BME280;62320;51.520;6.818;2022-10-16T14:03:52;101197.41;;;17.39;85.04
4528;BME280;62320;51.520;6.818;2022-10-16T14:13:54;101211.16;;;17.47;83.47
4528;BME280;62320;51.520;6.818;2022-10-16T14:23:56;101225.84;;;17.54;85.81
4528;BME280;62320;51.520;6.818;2022-10-16T14:33:58;101195.28;;;17.58;84.71
4528;BME280;62320;51.520;6.818;2022-10-16T14:44:03;101194.16;;;17.69;83.09
4528;BME280;62320;51.520;6.818;2022-10-16T14:54:07;101210.47;;;17.80;81.94
4528;BME280;62320;51.520;6.818;2022-10-16T15:04:11;101211.28;;;17.83;83.28
4528;BME280;62320;51.520;6.818;2022-10-16T15:14:13;101213.09;;;17.80;83.63
4528;BME280;62320;51.520;6.818;2022-10-16T15:24:19;101200.97;;;17.75;85.51
4528;BME280;62320;51.520;6.818;2022-10-16T15:34:22;101189.69;;;17.73;87.35
4528;BME280;62320;51.520;6.818;2022-10-16T15:44:23;101181.06;;;17.69;87.10
4528;BME280;62320;51.520;6.818;2022-10-16T15:54:27;101180.97;;;17.72;86.07
4528;BME280;62320;51.520;6.818;2022-10-16T16:04:31;101183.03;;;17.58;88.08
4528;BME280;62320;51.520;6.818;2022-10-16T16:14:44;101183.13;;;17.54;86.34
4528;BME280;62320;51.520;6.818;2022-10-16T16:24:47;101205.03;;;17.48;86.91
4528;BME280;62320;51.520;6.818;2022-10-16T16:34:48;101195.75;;;17.35;86.71
4528;BME280;62320;51.520;6.818;2022-10-16T16:44:49;101203.81;;;17.23;88.05
4528;BME280;62320;51.520;6.818;2022-10-16T16:54:51;101212.81;;;17.10;86.86
4528;BME280;62320;51.520;6.818;2022-10-16T17:04:53;101226.13;;;16.96;86.89
4528;BME280;62320;51.520;6.818;2022-10-16T17:14:54;101235.09;;;16.82;88.29
4528;BME280;62320;51.520;6.818;2022-10-16T17:24:56;101224.00;;;16.71;88.56
4528;BME280;62320;51.520;6.818;2022-10-16T17:34:57;101237.09;;;16.68;88.27
4528;BME280;62320;51.520;6.818;2022-10-16T17:44:58;101239.97;;;16.50;87.91
4528;BME280;62320;51.520;6.818;2022-10-16T17:55:00;101246.09;;;16.49;88.42
4528;BME280;62320;51.520;6.818;2022-10-16T18:05:01;101235.75;;;16.42;88.62
4528;BME280;62320;51.520;6.818;2022-10-16T18:15:06;101228.91;;;16.35;88.68
4528;BME280;62320;51.520;6.818;2022-10-16T18:25:08;101216.78;;;16.33;88.20
4528;BME280;62320;51.520;6.818;2022-10-16T18:35:09;101233.41;;;16.27;87.87
4528;BME280;62320;51.520;6.818;2022-10-16T18:45:10;101247.31;;;16.26;88.38
4528;BME280;62320;51.520;6.818;2022-10-16T18:55:12;101258.63;;;16.27;88.37
4528;BME280;62320;51.520;6.818;2022-10-16T19:05:13;101280.38;;;16.27;88.39
4528;BME280;62320;51.520;6.818;2022-10-16T19:15:16;101334.28;;;16.30;90.84
4528;BME280;62320;51.520;6.818;2022-10-16T19:25:17;101304.06;;;16.14;90.52
4528;BME280;62320;51.520;6.818;2022-10-16T19:35:21;101325.81;;;16.14;93.24
4528;BME280;62320;51.520;6.818;2022-10-16T19:45:22;101323.25;;;16.10;93.59
4528;BME280;62320;51.520;6.818;2022-10-16T19:55:24;101320.75;;;16.02;95.10
4528;BME280;62320;51.520;6.818;2022-10-16T20:05:25;101293.84;;;15.99;92.88
4528;BME280;62320;51.520;6.818;2022-10-16T20:15:27;101310.47;;;15.90;93.13
4528;BME280;62320;51.520;6.818;2022-10-16T20:25:28;101308.78;;;15.86;92.37
4528;BME280;62320;51.520;6.818;2022-10-16T20:35:35;101305.38;;;15.81;95.07
4528;BME280;62320;51.520;6.818;2022-10-16T20:45:36;101308.75;;;15.89;95.62
4528;BME280;62320;51.520;6.818;2022-10-16T20:55:38;101307.94;;;15.84;93.53
4528;BME280;62320;51.520;6.818;2022-10-16T21:05:40;101301.84;;;15.85;94.10
4528;BME280;62320;51.520;6.818;2022-10-16T21:15:42;101294.91;;;15.84;94.23
4528;BME280;62320;51.520;6.818;2022-10-16T21:25:50;101308.94;;;15.76;93.53
4528;BME280;62320;51.520;6.818;2022-10-16T21:35:51;101285.41;;;15.80;94.74
4528;BME280;62320;51.520;6.818;2022-10-16T21:45:53;101276.75;;;15.75;95.81
4528;BME280;62320;51.520;6.818;2022-10-16T21:55:54;101266.44;;;15.66;94.39
4528;BME280;62320;51.520;6.818;2022-10-16T22:06:00;101270.91;;;15.58;96.20
4528;BME280;62320;51.520;6.818;2022-10-16T22:16:07;101271.03;;;15.49;96.23
4528;BME280;62320;51.520;6.818;2022-10-16T22:26:10;101278.06;;;15.38;98.21
4528;BME280;62320;51.520;6.818;2022-10-16T22:36:13;101265.19;;;15.26;96.27
4528;BME280;62320;51.520;6.818;2022-10-16T22:46:21;101265.22;;;15.20;96.92
4528;BME280;62320;51.520;6.818;2022-10-16T22:56:23;101271.34;;;15.19;95.10
4528;BME280;62320;51.520;6.818;2022-10-16T23:06:24;101273.03;;;15.20;94.97
4528;BME280;62320;51.520;6.818;2022-10-16T23:16:26;101272.09;;;15.27;94.83
4528;BME280;62320;51.520;6.818;2022-10-16T23:26:27;101285.09;;;15.33;95.64
4528;BME280;62320;51.520;6.818;2022-10-16T23:36:28;101283.31;;;15.35;95.66
4528;BME280;62320;51.520;6.818;2022-10-16T23:46:30;101274.56;;;15.39;96.10
4528;BME280;62320;51.520;6.818;2022-10-16T23:56:31;101259.81;;;15.38;96.45
